Tucson, AZ

6:53 AM MST on January 31, 2015 (GMT -0700)
UA WRRC WEATHER | Change Station
CLOSE
Current Station
Personal Weather Station
Location: Tucson, AZ
Elevation: 2431 ft
Nearby Weather Stations

Elev 2431 ft 32.23 °N, 110.94 °W | Updated 14 minutes ago

Rain
Rain
52.0 °F
Feels Like 52.0 °F
N
1.0
Wind Variable Wind from East
Gusts 5.0 mph

Today
High -- | Low -- °F
--% Chance of Precip.
Yesterday
High -- | Low -- °F
Precip. -- in
7:18 AM 5:56 PM
Waxing Gibbous, 89% visible
Pressure 29.82 in
Visibility 10.0 miles
Clouds Few 1400 ft
Scattered Clouds 2800 ft
Mostly Cloudy 3400 ft
Dew Point 51 °F
Humidity 95%
Rainfall 0.11 in
Snow Depth Not available.
UV 0 out of 12
Pollen .50 out of 12
Air Quality Not available.
Flu Activity Not available.
SPECI KDMA 311343Z AUTO 12003KT 10SM -RA FEW014 SCT028 BKN034 11/11 A2982 RMK AO2

More Conditions Fewer Conditions

Pressure 29.82 in
Visibility 10.0 miles
Clouds Few 1400 ft
Scattered Clouds 2800 ft
Mostly Cloudy 3400 ft
Dew Point 51 °F
Humidity 95%
Rainfall 0.11 in
Snow Depth Not available.
UV 0 out of 12
Pollen .50 out of 12
Air Quality Not available.
Flu Activity Not available.
SPECI KDMA 311343Z AUTO 12003KT 10SM -RA FEW014 SCT028 BKN034 11/11 A2982 RMK AO2

More Conditions Fewer Conditions

Nowcast | as of 6:09 am MST on January 31, 2015

Showers will continue across Southeast Arizona through 8 am. Some of these showers will produce moderate rain with rainfall rates of two to three tenths of an inch per hour. Movement of the showers is generally to the northeast 15 to 25 mph. Periods of snow will continue this morning above 7500 feet.

×

10-Day Weather Forecast

Almanac

Astronomy

Jan. 31, 2015 Rise Set
Actual Time
Civil Twilight
Nautical Twilight
Astronomical Twilight
Moon
Length of Visible Light
Length of Day
Tomorrow will be .
, % of the Moon is Illuminated

Today's Extremes

State Highs State Lows

Community

WunderPhotos

Upload Photos

1,792,048 photos uploaded!

WunderBlogs® & News

Nearby

Air Quality

  Air Quality AQ Index Pollutant
Not available.

Snow Depth

Station Depth Elevation

Earthquake Activity

City Distance Mag. Time & Date
Minimum magnitude displayed is 2.5.

Coastal Water Temperatures

Place Temperature

Nearby Weather Stations